sensor_id;sensor_type;location;lat;lon;timestamp;pressure;altitude;pressure_sealevel;temperature;humidity
56518;BME280;42419;48.760;2.322;2023-05-14T00:00:28;101215.81;;;20.27;48.28
56518;BME280;42419;48.760;2.322;2023-05-14T00:02:53;101221.09;;;20.29;48.43
56518;BME280;42419;48.760;2.322;2023-05-14T00:05:18;101223.78;;;20.29;48.62
56518;BME280;42419;48.760;2.322;2023-05-14T00:07:44;101215.75;;;20.29;48.36
56518;BME280;42419;48.760;2.322;2023-05-14T00:10:09;101215.75;;;20.29;48.23
56518;BME280;42419;48.760;2.322;2023-05-14T00:12:35;101216.69;;;20.28;48.50
56518;BME280;42419;48.760;2.322;2023-05-14T00:15:00;101204.53;;;20.17;48.28
56518;BME280;42419;48.760;2.322;2023-05-14T00:17:26;101215.81;;;20.27;48.45
56518;BME280;42419;48.760;2.322;2023-05-14T00:19:51;101222.94;;;20.27;48.29
56518;BME280;42419;48.760;2.322;2023-05-14T00:22:17;101223.00;;;20.25;48.28
56518;BME280;42419;48.760;2.322;2023-05-14T00:24:42;101219.34;;;20.28;48.33
56518;BME280;42419;48.760;2.322;2023-05-14T00:27:07;101222.94;;;20.27;48.37
56518;BME280;42419;48.760;2.322;2023-05-14T00:29:33;101227.38;;;20.28;48.50
56518;BME280;42419;48.760;2.322;2023-05-14T00:31:58;101224.75;;;20.26;48.39
56518;BME280;42419;48.760;2.322;2023-05-14T00:34:24;101216.72;;;20.26;48.18
56518;BME280;42419;48.760;2.322;2023-05-14T00:36:50;101225.63;;;20.27;48.23
56518;BME280;42419;48.760;2.322;2023-05-14T00:39:15;101212.50;;;20.19;48.39
56518;BME280;42419;48.760;2.322;2023-05-14T00:41:40;101213.13;;;20.27;48.30
56518;BME280;42419;48.760;2.322;2023-05-14T00:44:06;101211.34;;;20.28;48.30
56518;BME280;42419;48.760;2.322;2023-05-14T00:46:31;101196.28;;;20.25;48.41
56518;BME280;42419;48.760;2.322;2023-05-14T00:48:57;101200.69;;;20.26;48.43
56518;BME280;42419;48.760;2.322;2023-05-14T00:51:23;101193.53;;;20.27;48.35
56518;BME280;42419;48.760;2.322;2023-05-14T00:53:49;101148.19;;;19.97;48.46
56518;BME280;42419;48.760;2.322;2023-05-14T00:56:14;101198.06;;;20.25;48.34
56518;BME280;42419;48.760;2.322;2023-05-14T00:58:40;101197.16;;;20.26;48.29
56518;BME280;42419;48.760;2.322;2023-05-14T01:01:06;101182.19;;;20.20;48.05
56518;BME280;42419;48.760;2.322;2023-05-14T01:03:31;101190.06;;;20.25;48.18
56518;BME280;42419;48.760;2.322;2023-05-14T01:08:57;101188.25;;;20.25;48.31
56518;BME280;42419;48.760;2.322;2023-05-14T01:11:47;101185.63;;;20.24;48.39
56518;BME280;42419;48.760;2.322;2023-05-14T01:14:21;101179.53;;;20.18;48.33
56518;BME280;42419;48.760;2.322;2023-05-14T01:16:52;101189.22;;;20.23;48.45
56518;BME280;42419;48.760;2.322;2023-05-14T01:19:35;101167.34;;;20.10;48.61
56518;BME280;42419;48.760;2.322;2023-05-14T01:22:01;101183.88;;;20.23;48.44
56518;BME280;42419;48.760;2.322;2023-05-14T01:24:26;101179.44;;;20.21;48.39
56518;BME280;42419;48.760;2.322;2023-05-14T01:26:53;101186.53;;;20.23;48.49
56518;BME280;42419;48.760;2.322;2023-05-14T01:29:22;101153.22;;;20.06;48.22
56518;BME280;42419;48.760;2.322;2023-05-14T01:31:49;101173.41;;;20.16;48.16
56518;BME280;42419;48.760;2.322;2023-05-14T01:34:19;101174.31;;;20.15;48.36
56518;BME280;42419;48.760;2.322;2023-05-14T01:36:46;101186.53;;;20.23;48.29
56518;BME280;42419;48.760;2.322;2023-05-14T01:39:13;101174.31;;;20.15;48.38
56518;BME280;42419;48.760;2.322;2023-05-14T01:41:39;101181.19;;;20.23;48.18
56518;BME280;42419;48.760;2.322;2023-05-14T01:44:08;101187.47;;;20.21;48.35
56518;BME280;42419;48.760;2.322;2023-05-14T01:46:33;101191.88;;;20.23;48.31
56518;BME280;42419;48.760;2.322;2023-05-14T01:48:59;101188.34;;;20.22;48.21
56518;BME280;42419;48.760;2.322;2023-05-14T01:51:25;101179.59;;;20.17;48.55
56518;BME280;42419;48.760;2.322;2023-05-14T01:53:50;101170.78;;;20.13;48.25
56518;BME280;42419;48.760;2.322;2023-05-14T01:56:16;101182.09;;;20.21;48.50
56518;BME280;42419;48.760;2.322;2023-05-14T01:58:42;101181.31;;;20.19;48.45
56518;BME280;42419;48.760;2.322;2023-05-14T02:01:07;101184.84;;;20.20;48.22
56518;BME280;42419;48.760;2.322;2023-05-14T02:03:32;101186.59;;;20.21;48.42
56518;BME280;42419;48.760;2.322;2023-05-14T02:05:58;101199.09;;;20.20;48.18
56518;BME280;42419;48.760;2.322;2023-05-14T02:08:23;101187.53;;;20.20;48.14
56518;BME280;42419;48.760;2.322;2023-05-14T02:10:48;101179.69;;;20.14;48.18
56518;BME280;42419;48.760;2.322;2023-05-14T02:13:14;101190.19;;;20.20;48.14
56518;BME280;42419;48.760;2.322;2023-05-14T02:15:39;101191.06;;;20.20;48.16
56518;BME280;42419;48.760;2.322;2023-05-14T02:18:04;101203.56;;;20.20;48.12
56518;BME280;42419;48.760;2.322;2023-05-14T02:20:30;101193.78;;;20.19;48.31
56518;BME280;42419;48.760;2.322;2023-05-14T02:22:55;101187.56;;;20.18;48.34
56518;BME280;42419;48.760;2.322;2023-05-14T02:25:20;101191.13;;;20.19;48.31
56518;BME280;42419;48.760;2.322;2023-05-14T02:27:46;101189.31;;;20.19;48.26
56518;BME280;42419;48.760;2.322;2023-05-14T02:30:11;101169.25;;;20.06;48.57
56518;BME280;42419;48.760;2.322;2023-05-14T02:32:37;101185.78;;;20.19;48.29
56518;BME280;42419;48.760;2.322;2023-05-14T02:35:02;101193.78;;;20.19;48.26
56518;BME280;42419;48.760;2.322;2023-05-14T02:37:27;101187.59;;;20.17;48.06
56518;BME280;42419;48.760;2.322;2023-05-14T02:39:53;101184.88;;;20.18;48.16
56518;BME280;42419;48.760;2.322;2023-05-14T02:42:18;101176.22;;;20.12;48.12
56518;BME280;42419;48.760;2.322;2023-05-14T02:44:43;101170.94;;;20.09;47.90
56518;BME280;42419;48.760;2.322;2023-05-14T02:47:09;101184.88;;;20.18;48.06
56518;BME280;42419;48.760;2.322;2023-05-14T02:49:34;101185.81;;;20.17;47.90
56518;BME280;42419;48.760;2.322;2023-05-14T02:52:00;101188.47;;;20.17;48.00
56518;BME280;42419;48.760;2.322;2023-05-14T02:54:25;101196.50;;;20.17;48.11
56518;BME280;42419;48.760;2.322;2023-05-14T02:56:51;101189.38;;;20.18;48.15
56518;BME280;42419;48.760;2.322;2023-05-14T02:59:16;101115.94;;;19.75;47.99
56518;BME280;42419;48.760;2.322;2023-05-14T03:01:41;101187.59;;;20.17;48.01
56518;BME280;42419;48.760;2.322;2023-05-14T03:04:07;101199.19;;;20.17;48.01
56518;BME280;42419;48.760;2.322;2023-05-14T03:06:32;101195.63;;;20.17;48.06
56518;BME280;42419;48.760;2.322;2023-05-14T03:08:58;101196.50;;;20.17;48.03
56518;BME280;42419;48.760;2.322;2023-05-14T03:11:23;101135.22;;;19.85;48.10
56518;BME280;42419;48.760;2.322;2023-05-14T03:13:48;101177.13;;;20.11;48.20
56518;BME280;42419;48.760;2.322;2023-05-14T03:16:14;101187.59;;;20.17;48.04
56518;BME280;42419;48.760;2.322;2023-05-14T03:18:39;101182.25;;;20.17;47.96
56518;BME280;42419;48.760;2.322;2023-05-14T03:21:04;101186.75;;;20.16;48.03
56518;BME280;42419;48.760;2.322;2023-05-14T03:23:30;101190.34;;;20.15;47.99
56518;BME280;42419;48.760;2.322;2023-05-14T03:25:58;101185.00;;;20.15;47.91
56518;BME280;42419;48.760;2.322;2023-05-14T03:28:24;101178.78;;;20.15;47.92
56518;BME280;42419;48.760;2.322;2023-05-14T03:30:50;101180.63;;;20.13;48.00
56518;BME280;42419;48.760;2.322;2023-05-14T03:33:15;101184.94;;;20.17;47.99
56518;BME280;42419;48.760;2.322;2023-05-14T03:35:40;101179.66;;;20.15;47.82
56518;BME280;42419;48.760;2.322;2023-05-14T03:38:06;101186.78;;;20.15;47.95
56518;BME280;42419;48.760;2.322;2023-05-14T03:40:31;101189.44;;;20.16;47.82
56518;BME280;42419;48.760;2.322;2023-05-14T03:42:56;101187.75;;;20.12;47.86
56518;BME280;42419;48.760;2.322;2023-05-14T03:45:22;101186.78;;;20.15;47.53
56518;BME280;42419;48.760;2.322;2023-05-14T03:47:47;101173.78;;;20.04;47.94
56518;BME280;42419;48.760;2.322;2023-05-14T03:50:12;101192.16;;;20.15;47.86
56518;BME280;42419;48.760;2.322;2023-05-14T03:52:38;101182.50;;;20.09;47.88
56518;BME280;42419;48.760;2.322;2023-05-14T03:55:04;101197.50;;;20.15;47.84
56518;BME280;42419;48.760;2.322;2023-05-14T03:57:30;101197.50;;;20.15;47.81
56518;BME280;42419;48.760;2.322;2023-05-14T03:59:55;101195.69;;;20.15;47.77
56518;BME280;42419;48.760;2.322;2023-05-14T04:02:20;101187.69;;;20.15;47.84
56518;BME280;42419;48.760;2.322;2023-05-14T04:04:46;101183.25;;;20.14;47.81
56518;BME280;42419;48.760;2.322;2023-05-14T04:07:11;101183.25;;;20.14;47.83
56518;BME280;42419;48.760;2.322;2023-05-14T04:09:36;101190.38;;;20.14;47.72
56518;BME280;42419;48.760;2.322;2023-05-14T04:12:02;101175.53;;;20.05;47.74
56518;BME280;42419;48.760;2.322;2023-05-14T04:14:27;101199.28;;;20.14;47.74
56518;BME280;42419;48.760;2.322;2023-05-14T04:16:53;101201.09;;;20.14;47.72
56518;BME280;42419;48.760;2.322;2023-05-14T04:19:18;101199.28;;;20.14;47.69
56518;BME280;42419;48.760;2.322;2023-05-14T04:21:43;101204.63;;;20.14;47.67
56518;BME280;42419;48.760;2.322;2023-05-14T04:24:09;101192.28;;;20.10;47.75
56518;BME280;42419;48.760;2.322;2023-05-14T04:26:34;101190.75;;;20.03;47.51
56518;BME280;42419;48.760;2.322;2023-05-14T04:29:00;101183.66;;;20.02;47.49
56518;BME280;42419;48.760;2.322;2023-05-14T04:31:27;101199.28;;;20.14;47.64
56518;BME280;42419;48.760;2.322;2023-05-14T04:33:52;101193.06;;;20.14;47.69
56518;BME280;42419;48.760;2.322;2023-05-14T04:36:20;101183.53;;;20.05;47.64
56518;BME280;42419;48.760;2.322;2023-05-14T04:38:46;101202.88;;;20.13;47.62
56518;BME280;42419;48.760;2.322;2023-05-14T04:41:11;101182.66;;;20.05;47.44
56518;BME280;42419;48.760;2.322;2023-05-14T04:43:37;101208.28;;;20.12;47.66
56518;BME280;42419;48.760;2.322;2023-05-14T04:46:02;101206.47;;;20.12;47.67
56518;BME280;42419;48.760;2.322;2023-05-14T04:48:27;101210.97;;;20.12;47.70
56518;BME280;42419;48.760;2.322;2023-05-14T04:50:53;101204.66;;;20.13;47.61
56518;BME280;42419;48.760;2.322;2023-05-14T04:53:18;101210.09;;;20.11;47.44
56518;BME280;42419;48.760;2.322;2023-05-14T04:55:43;101196.94;;;20.04;47.84
56518;BME280;42419;48.760;2.322;2023-05-14T04:58:10;101213.66;;;20.12;47.55
56518;BME280;42419;48.760;2.322;2023-05-14T05:00:35;101180.28;;;19.96;47.56
56518;BME280;42419;48.760;2.322;2023-05-14T05:03:01;101208.28;;;20.12;47.33
56518;BME280;42419;48.760;2.322;2023-05-14T05:05:26;101200.34;;;20.09;47.65
56518;BME280;42419;48.760;2.322;2023-05-14T05:07:51;101196.72;;;20.11;47.69
56518;BME280;42419;48.760;2.322;2023-05-14T05:10:16;101203.78;;;20.12;47.55
56518;BME280;42419;48.760;2.322;2023-05-14T05:12:42;101194.13;;;20.08;47.63
56518;BME280;42419;48.760;2.322;2023-05-14T05:15:07;101196.00;;;20.06;47.63
56518;BME280;42419;48.760;2.322;2023-05-14T05:17:34;101201.19;;;20.11;47.49
56518;BME280;42419;48.760;2.322;2023-05-14T05:19:59;101202.06;;;20.11;47.42
56518;BME280;42419;48.760;2.322;2023-05-14T05:22:25;101192.41;;;20.07;47.59
56518;BME280;42419;48.760;2.322;2023-05-14T05:24:50;101178.38;;;19.99;47.35
56518;BME280;42419;48.760;2.322;2023-05-14T05:27:15;101199.41;;;20.11;47.46
56518;BME280;42419;48.760;2.322;2023-05-14T05:29:45;101199.41;;;20.11;47.34
56518;BME280;42419;48.760;2.322;2023-05-14T05:32:10;101166.03;;;19.95;47.38
56518;BME280;42419;48.760;2.322;2023-05-14T05:34:35;101200.28;;;20.12;47.39
56518;BME280;42419;48.760;2.322;2023-05-14T05:37:01;101203.88;;;20.11;47.34
56518;BME280;42419;48.760;2.322;2023-05-14T05:39:27;101198.53;;;20.11;47.47
56518;BME280;42419;48.760;2.322;2023-05-14T05:41:58;101204.75;;;20.11;47.33
56518;BME280;42419;48.760;2.322;2023-05-14T05:44:24;101206.53;;;20.11;47.42
56518;BME280;42419;48.760;2.322;2023-05-14T05:46:49;101204.06;;;20.05;47.30
56518;BME280;42419;48.760;2.322;2023-05-14T05:49:15;101214.56;;;20.11;47.33
56518;BME280;42419;48.760;2.322;2023-05-14T05:51:40;101220.78;;;20.11;47.34
56518;BME280;42419;48.760;2.322;2023-05-14T05:54:05;101204.97;;;20.04;47.41
56518;BME280;42419;48.760;2.322;2023-05-14T05:56:30;101223.47;;;20.11;47.53
56518;BME280;42419;48.760;2.322;2023-05-14T05:58:56;101226.13;;;20.11;47.46
56518;BME280;42419;48.760;2.322;2023-05-14T06:01:21;101221.69;;;20.10;47.26
56518;BME280;42419;48.760;2.322;2023-05-14T06:03:47;101222.50;;;20.12;47.51
56518;BME280;42419;48.760;2.322;2023-05-14T06:06:12;101234.97;;;20.13;47.47
56518;BME280;42419;48.760;2.322;2023-05-14T06:08:37;101234.91;;;20.15;47.72
56518;BME280;42419;48.760;2.322;2023-05-14T06:11:03;101235.72;;;20.17;47.60
56518;BME280;42419;48.760;2.322;2023-05-14T06:13:28;101241.94;;;20.17;47.74
56518;BME280;42419;48.760;2.322;2023-05-14T06:15:53;101235.72;;;20.17;47.62
56518;BME280;42419;48.760;2.322;2023-05-14T06:18:19;101242.84;;;20.18;47.47
56518;BME280;42419;48.760;2.322;2023-05-14T06:20:44;101242.84;;;20.18;47.36
56518;BME280;42419;48.760;2.322;2023-05-14T06:23:09;101247.31;;;20.17;47.28
56518;BME280;42419;48.760;2.322;2023-05-14T06:25:36;101251.78;;;20.17;47.16
56518;BME280;42419;48.760;2.322;2023-05-14T06:28:01;101229.91;;;20.04;47.25
56518;BME280;42419;48.760;2.322;2023-05-14T06:30:27;101260.66;;;20.17;47.21
56518;BME280;42419;48.760;2.322;2023-05-14T06:32:52;101263.34;;;20.17;47.30
56518;BME280;42419;48.760;2.322;2023-05-14T06:35:17;101263.34;;;20.17;47.35
56518;BME280;42419;48.760;2.322;2023-05-14T06:37:43;101267.81;;;20.17;47.66
56518;BME280;42419;48.760;2.322;2023-05-14T06:40:09;101265.22;;;20.15;47.83
56518;BME280;42419;48.760;2.322;2023-05-14T06:42:35;101266.13;;;20.14;47.33
56518;BME280;42419;48.760;2.322;2023-05-14T06:45:00;101275.97;;;20.12;47.98
56518;BME280;42419;48.760;2.322;2023-05-14T06:47:25;101275.91;;;20.15;47.95
56518;BME280;42419;48.760;2.322;2023-05-14T06:49:51;101263.44;;;20.14;47.58
56518;BME280;42419;48.760;2.322;2023-05-14T06:52:16;101273.22;;;20.15;47.79
56518;BME280;42419;48.760;2.322;2023-05-14T06:54:41;101268.78;;;20.14;47.78
56518;BME280;42419;48.760;2.322;2023-05-14T06:57:07;101261.69;;;20.13;47.86
56518;BME280;42419;48.760;2.322;2023-05-14T06:59:32;101261.66;;;20.15;48.07
56518;BME280;42419;48.760;2.322;2023-05-14T07:01:57;101270.56;;;20.15;47.90
56518;BME280;42419;48.760;2.322;2023-05-14T07:04:23;101248.44;;;20.10;48.45
56518;BME280;42419;48.760;2.322;2023-05-14T07:06:49;101250.91;;;20.16;48.08
56518;BME280;42419;48.760;2.322;2023-05-14T07:09:15;101251.78;;;20.17;48.01
56518;BME280;42419;48.760;2.322;2023-05-14T07:11:40;101253.59;;;20.16;48.04
56518;BME280;42419;48.760;2.322;2023-05-14T07:14:05;101257.13;;;20.17;48.25
56518;BME280;42419;48.760;2.322;2023-05-14T07:16:31;101249.38;;;20.08;48.09
56518;BME280;42419;48.760;2.322;2023-05-14T07:18:56;101258.94;;;20.16;47.62
56518;BME280;42419;48.760;2.322;2023-05-14T07:21:21;101264.22;;;20.18;48.10
56518;BME280;42419;48.760;2.322;2023-05-14T07:23:46;101266.91;;;20.18;48.03
56518;BME280;42419;48.760;2.322;2023-05-14T07:26:12;101266.00;;;20.17;48.08
56518;BME280;42419;48.760;2.322;2023-05-14T07:28:37;101262.53;;;20.15;48.35
56518;BME280;42419;48.760;2.322;2023-05-14T07:31:02;101268.69;;;20.17;48.44
56518;BME280;42419;48.760;2.322;2023-05-14T07:33:33;101267.78;;;20.18;48.73
56518;BME280;42419;48.760;2.322;2023-05-14T07:35:59;101265.94;;;20.20;49.07
56518;BME280;42419;48.760;2.322;2023-05-14T07:38:25;101244.09;;;20.06;48.83
56518;BME280;42419;48.760;2.322;2023-05-14T07:40:50;101267.59;;;20.25;49.35
56518;BME280;42419;48.760;2.322;2023-05-14T07:43:15;101271.19;;;20.24;49.53
56518;BME280;42419;48.760;2.322;2023-05-14T07:45:41;101276.41;;;20.27;49.70
56518;BME280;42419;48.760;2.322;2023-05-14T07:48:06;101271.06;;;20.27;49.39
56518;BME280;42419;48.760;2.322;2023-05-14T07:50:31;101274.63;;;20.27;49.49
56518;BME280;42419;48.760;2.322;2023-05-14T07:52:57;101281.72;;;20.28;49.57
56518;BME280;42419;48.760;2.322;2023-05-14T07:55:22;101274.63;;;20.27;49.40
56518;BME280;42419;48.760;2.322;2023-05-14T07:57:47;101279.97;;;20.27;49.41
56518;BME280;42419;48.760;2.322;2023-05-14T08:00:13;101279.09;;;20.27;49.17
56518;BME280;42419;48.760;2.322;2023-05-14T08:02:39;101276.41;;;20.27;49.17
56518;BME280;42419;48.760;2.322;2023-05-14T08:05:04;101270.19;;;20.26;49.20
56518;BME280;42419;48.760;2.322;2023-05-14T08:07:30;101275.53;;;20.26;48.94
56518;BME280;42419;48.760;2.322;2023-05-14T08:09:55;101279.09;;;20.27;48.99
56518;BME280;42419;48.760;2.322;2023-05-14T08:12:21;101280.88;;;20.26;48.82
56518;BME280;42419;48.760;2.322;2023-05-14T08:14:46;101272.03;;;20.26;48.78
56518;BME280;42419;48.760;2.322;2023-05-14T08:17:11;101276.50;;;20.25;48.89
56518;BME280;42419;48.760;2.322;2023-05-14T08:19:37;101268.69;;;20.17;48.45
56518;BME280;42419;48.760;2.322;2023-05-14T08:22:02;101279.16;;;20.25;48.57
56518;BME280;42419;48.760;2.322;2023-05-14T08:24:28;101290.75;;;20.26;48.53
56518;BME280;42419;48.760;2.322;2023-05-14T08:26:54;101279.38;;;20.17;48.66
56518;BME280;42419;48.760;2.322;2023-05-14T08:29:20;101286.31;;;20.25;48.40
56518;BME280;42419;48.760;2.322;2023-05-14T08:31:45;101274.91;;;20.18;48.30
56518;BME280;42419;48.760;2.322;2023-05-14T08:34:11;101252.22;;;20.03;48.23
56518;BME280;42419;48.760;2.322;2023-05-14T08:36:39;101295.25;;;20.24;48.34
56518;BME280;42419;48.760;2.322;2023-05-14T08:39:05;101296.13;;;20.24;48.42
56518;BME280;42419;48.760;2.322;2023-05-14T08:41:31;101284.56;;;20.24;48.36
56518;BME280;42419;48.760;2.322;2023-05-14T08:46:29;101262.81;;;20.06;48.27
56518;BME280;42419;48.760;2.322;2023-05-14T08:49:40;101283.84;;;20.17;48.29
56518;BME280;42419;48.760;2.322;2023-05-14T08:52:07;101304.19;;;20.23;48.12
56518;BME280;42419;48.760;2.322;2023-05-14T08:54:32;101301.50;;;20.23;48.11
56518;BME280;42419;48.760;2.322;2023-05-14T08:56:58;101293.50;;;20.23;47.97
56518;BME280;42419;48.760;2.322;2023-05-14T08:59:24;101288.13;;;20.23;47.98
56518;BME280;42419;48.760;2.322;2023-05-14T09:01:51;101295.28;;;20.22;47.90
56518;BME280;42419;48.760;2.322;2023-05-14T09:04:22;101289.06;;;20.21;47.92
56518;BME280;42419;48.760;2.322;2023-05-14T09:06:49;101283.81;;;20.18;48.05
56518;BME280;42419;48.760;2.322;2023-05-14T09:09:15;101274.25;;;20.11;47.93
56518;BME280;42419;48.760;2.322;2023-05-14T09:11:41;101291.69;;;20.23;47.79
56518;BME280;42419;48.760;2.322;2023-05-14T09:14:07;101287.25;;;20.22;47.83
56518;BME280;42419;48.760;2.322;2023-05-14T09:16:33;101288.13;;;20.23;47.83
56518;BME280;42419;48.760;2.322;2023-05-14T09:18:58;101276.72;;;20.17;47.82
56518;BME280;42419;48.760;2.322;2023-05-14T09:21:24;101289.00;;;20.23;47.64
56518;BME280;42419;48.760;2.322;2023-05-14T09:23:52;101274.03;;;20.17;47.67
56518;BME280;42419;48.760;2.322;2023-05-14T09:26:22;101281.84;;;20.25;47.74
56518;BME280;42419;48.760;2.322;2023-05-14T09:28:47;101285.41;;;20.26;47.80
56518;BME280;42419;48.760;2.322;2023-05-14T09:31:13;101290.75;;;20.26;47.86
56518;BME280;42419;48.760;2.322;2023-05-14T09:33:38;101279.09;;;20.27;47.97
56518;BME280;42419;48.760;2.322;2023-05-14T09:36:03;101280.97;;;20.25;47.99
56518;BME280;42419;48.760;2.322;2023-05-14T09:38:32;101279.03;;;20.30;48.26
56518;BME280;42419;48.760;2.322;2023-05-14T09:40:58;101279.03;;;20.30;48.29
56518;BME280;42419;48.760;2.322;2023-05-14T09:43:24;101282.50;;;20.32;48.36
56518;BME280;42419;48.760;2.322;2023-05-14T09:45:50;101272.78;;;20.29;48.33
56518;BME280;42419;48.760;2.322;2023-05-14T09:48:16;101270.94;;;20.31;48.50
56518;BME280;42419;48.760;2.322;2023-05-14T09:50:42;101277.91;;;20.35;48.39
56518;BME280;42419;48.760;2.322;2023-05-14T09:53:08;101272.53;;;20.37;48.38
56518;BME280;42419;48.760;2.322;2023-05-14T09:55:35;101278.75;;;20.37;48.63
56518;BME280;42419;48.760;2.322;2023-05-14T09:58:00;101289.44;;;20.39;48.61
56518;BME280;42419;48.760;2.322;2023-05-14T10:00:26;101289.44;;;20.39;48.87
56518;BME280;42419;48.760;2.322;2023-05-14T10:02:53;101285.81;;;20.40;48.64
56518;BME280;42419;48.760;2.322;2023-05-14T10:05:20;101227.16;;;20.07;48.80
56518;BME280;42419;48.760;2.322;2023-05-14T10:07:50;101262.03;;;20.31;48.71
56518;BME280;42419;48.760;2.322;2023-05-14T10:10:19;101272.66;;;20.34;48.33
56518;BME280;42419;48.760;2.322;2023-05-14T10:13:12;101281.25;;;20.43;48.43
56518;BME280;42419;48.760;2.322;2023-05-14T10:15:47;101276.78;;;20.44;48.44
56518;BME280;42419;48.760;2.322;2023-05-14T10:18:16;101276.78;;;20.44;48.35
56518;BME280;42419;48.760;2.322;2023-05-14T10:20:45;101275.00;;;20.44;48.57
56518;BME280;42419;48.760;2.322;2023-05-14T10:23:12;101275.88;;;20.45;48.34
56518;BME280;42419;48.760;2.322;2023-05-14T10:25:38;101280.25;;;20.47;48.44
56518;BME280;42419;48.760;2.322;2023-05-14T10:28:03;101274.03;;;20.47;48.57
56518;BME280;42419;48.760;2.322;2023-05-14T10:30:30;101276.72;;;20.47;48.40
56518;BME280;42419;48.760;2.322;2023-05-14T10:33:10;101276.59;;;20.50;48.46
56518;BME280;42419;48.760;2.322;2023-05-14T10:36:04;101271.25;;;20.50;48.44
56518;BME280;42419;48.760;2.322;2023-05-14T10:38:34;101273.00;;;20.51;48.33
56518;BME280;42419;48.760;2.322;2023-05-14T10:43:27;101271.22;;;20.51;48.05
56518;BME280;42419;48.760;2.322;2023-05-14T10:45:55;101270.28;;;20.52;47.89
56518;BME280;42419;48.760;2.322;2023-05-14T10:48:21;101271.09;;;20.54;47.89
56518;BME280;42419;48.760;2.322;2023-05-14T10:50:47;101271.97;;;20.55;47.86
56518;BME280;42419;48.760;2.322;2023-05-14T10:53:14;101250.91;;;20.44;47.88
56518;BME280;42419;48.760;2.322;2023-05-14T10:55:41;101263.84;;;20.58;47.77
56518;BME280;42419;48.760;2.322;2023-05-14T10:58:06;101257.56;;;20.59;47.85
56518;BME280;42419;48.760;2.322;2023-05-14T11:00:34;101262.88;;;20.60;48.11
56518;BME280;42419;48.760;2.322;2023-05-14T11:03:03;101260.13;;;20.62;47.76
56518;BME280;42419;48.760;2.322;2023-05-14T11:05:30;101260.06;;;20.65;47.65
56518;BME280;42419;48.760;2.322;2023-05-14T11:07:56;101253.75;;;20.66;47.93
56518;BME280;42419;48.760;2.322;2023-05-14T11:10:22;101251.91;;;20.68;47.64
56518;BME280;42419;48.760;2.322;2023-05-14T11:12:50;101228.13;;;20.59;47.65
56518;BME280;42419;48.760;2.322;2023-05-14T11:15:18;101249.09;;;20.73;47.58
56518;BME280;42419;48.760;2.322;2023-05-14T11:17:45;101240.06;;;20.75;47.93
56518;BME280;42419;48.760;2.322;2023-05-14T11:20:11;101233.69;;;20.79;48.00
56518;BME280;42419;48.760;2.322;2023-05-14T11:22:39;101232.66;;;20.83;48.01
56518;BME280;42419;48.760;2.322;2023-05-14T11:25:05;101229.00;;;20.86;48.16
56518;BME280;42419;48.760;2.322;2023-05-14T11:27:33;101227.16;;;20.88;48.24
56518;BME280;42419;48.760;2.322;2023-05-14T11:29:59;101233.31;;;20.90;48.19
56518;BME280;42419;48.760;2.322;2023-05-14T11:32:26;101224.34;;;20.91;48.44
56518;BME280;42419;48.760;2.322;2023-05-14T11:34:51;101212.66;;;20.93;48.04
56518;BME280;42419;48.760;2.322;2023-05-14T11:37:17;101217.09;;;20.94;48.08
56518;BME280;42419;48.760;2.322;2023-05-14T11:39:47;101217.84;;;20.98;47.92
56518;BME280;42419;48.760;2.322;2023-05-14T11:42:13;101215.13;;;20.99;47.83
56518;BME280;42419;48.760;2.322;2023-05-14T11:44:41;101208.78;;;21.02;47.90
56518;BME280;42419;48.760;2.322;2023-05-14T11:47:09;101207.81;;;21.04;47.79
56518;BME280;42419;48.760;2.322;2023-05-14T11:49:34;101206.94;;;21.04;47.54
56518;BME280;42419;48.760;2.322;2023-05-14T11:52:03;101200.56;;;21.06;47.33
56518;BME280;42419;48.760;2.322;2023-05-14T11:54:30;101205.00;;;21.07;47.48
56518;BME280;42419;48.760;2.322;2023-05-14T11:56:57;101206.72;;;21.10;47.26
56518;BME280;42419;48.760;2.322;2023-05-14T11:59:24;101189.13;;;21.03;47.32
56518;BME280;42419;48.760;2.322;2023-05-14T12:01:50;101195.13;;;21.09;47.14
56518;BME280;42419;48.760;2.322;2023-05-14T12:04:17;101208.34;;;21.14;45.83
56518;BME280;42419;48.760;2.322;2023-05-14T12:06:43;101197.66;;;21.14;45.63
56518;BME280;42419;48.760;2.322;2023-05-14T12:09:11;101189.69;;;21.11;44.26
56518;BME280;42419;48.760;2.322;2023-05-14T12:11:36;101194.13;;;21.12;44.74
56518;BME280;42419;48.760;2.322;2023-05-14T12:14:09;101189.59;;;21.14;44.02
56518;BME280;42419;48.760;2.322;2023-05-14T12:16:35;101196.69;;;21.15;44.76
56518;BME280;42419;48.760;2.322;2023-05-14T12:19:00;101189.59;;;21.14;44.73
56518;BME280;42419;48.760;2.322;2023-05-14T12:21:26;101170.38;;;21.03;45.20
56518;BME280;42419;48.760;2.322;2023-05-14T12:23:58;101188.63;;;21.17;44.76
56518;BME280;42419;48.760;2.322;2023-05-14T12:26:24;101192.06;;;21.20;45.30
56518;BME280;42419;48.760;2.322;2023-05-14T12:28:58;101165.47;;;21.16;45.30
56518;BME280;42419;48.760;2.322;2023-05-14T12:31:30;101181.09;;;21.28;45.58
56518;BME280;42419;48.760;2.322;2023-05-14T12:33:56;101174.75;;;21.30;45.65
56518;BME280;42419;48.760;2.322;2023-05-14T12:36:22;101170.13;;;21.34;45.40
56518;BME280;42419;48.760;2.322;2023-05-14T12:38:48;101164.84;;;21.32;45.44
56518;BME280;42419;48.760;2.322;2023-05-14T12:41:14;101169.97;;;21.38;45.67
56518;BME280;42419;48.760;2.322;2023-05-14T12:43:43;101168.03;;;21.42;45.66
56518;BME280;42419;48.760;2.322;2023-05-14T12:46:09;101164.44;;;21.43;45.44
56518;BME280;42419;48.760;2.322;2023-05-14T12:48:34;101163.53;;;21.42;45.37
56518;BME280;42419;48.760;2.322;2023-05-14T12:51:00;101152.91;;;21.41;45.11
56518;BME280;42419;48.760;2.322;2023-05-14T12:53:25;101131.13;;;21.27;45.15